sensor_id;sensor_type;location;lat;lon;timestamp;pressure;altitude;pressure_sealevel;temperature;humidity
59435;BME280;45241;49.768;8.636;2023-05-12T00:00:18;99980.78;;;14.19;100.00
59435;BME280;45241;49.768;8.636;2023-05-12T00:02:43;99982.50;;;14.14;100.00
59435;BME280;45241;49.768;8.636;2023-05-12T00:05:09;99986.72;;;14.03;100.00
59435;BME280;45241;49.768;8.636;2023-05-12T00:07:35;99986.66;;;14.09;100.00
59435;BME280;45241;49.768;8.636;2023-05-12T00:10:00;99985.72;;;14.22;100.00
59435;BME280;45241;49.768;8.636;2023-05-12T00:12:26;99984.06;;;14.21;100.00
59435;BME280;45241;49.768;8.636;2023-05-12T00:14:51;99988.09;;;14.12;100.00
59435;BME280;45241;49.768;8.636;2023-05-12T00:17:17;99988.00;;;14.00;100.00
59435;BME280;45241;49.768;8.636;2023-05-12T00:19:42;99979.25;;;14.05;100.00
59435;BME280;45241;49.768;8.636;2023-05-12T00:22:09;99986.22;;;14.13;100.00
59435;BME280;45241;49.768;8.636;2023-05-12T00:24:35;99982.25;;;13.90;100.00
59435;BME280;45241;49.768;8.636;2023-05-12T00:27:00;99978.97;;;13.88;100.00
59435;BME280;45241;49.768;8.636;2023-05-12T00:29:26;99981.88;;;13.87;100.00
59435;BME280;45241;49.768;8.636;2023-05-12T00:31:51;99988.63;;;13.96;100.00
59435;BME280;45241;49.768;8.636;2023-05-12T00:34:16;99980.88;;;14.06;100.00
59435;BME280;45241;49.768;8.636;2023-05-12T00:36:42;99980.94;;;13.99;100.00
59435;BME280;45241;49.768;8.636;2023-05-12T00:39:07;99973.84;;;14.05;100.00
59435;BME280;45241;49.768;8.636;2023-05-12T00:41:32;99980.03;;;14.12;100.00
59435;BME280;45241;49.768;8.636;2023-05-12T00:43:57;99974.09;;;14.22;100.00
59435;BME280;45241;49.768;8.636;2023-05-12T00:46:23;99975.00;;;14.16;100.00
59435;BME280;45241;49.768;8.636;2023-05-12T00:48:49;99975.47;;;14.13;100.00
59435;BME280;45241;49.768;8.636;2023-05-12T00:51:15;99970.94;;;14.06;100.00
59435;BME280;45241;49.768;8.636;2023-05-12T00:53:41;99962.34;;;13.91;100.00
59435;BME280;45241;49.768;8.636;2023-05-12T00:56:08;99968.56;;;13.92;100.00
59435;BME280;45241;49.768;8.636;2023-05-12T00:58:34;99964.66;;;13.88;100.00
59435;BME280;45241;49.768;8.636;2023-05-12T01:00:59;99974.81;;;13.86;100.00
59435;BME280;45241;49.768;8.636;2023-05-12T01:03:25;99967.41;;;13.81;100.00
59435;BME280;45241;49.768;8.636;2023-05-12T01:06:10;99965.88;;;13.92;100.00
59435;BME280;45241;49.768;8.636;2023-05-12T01:08:37;99968.78;;;13.90;100.00
59435;BME280;45241;49.768;8.636;2023-05-12T01:11:02;99970.44;;;13.91;100.00
59435;BME280;45241;49.768;8.636;2023-05-12T01:13:28;99967.00;;;13.77;100.00
59435;BME280;45241;49.768;8.636;2023-05-12T01:15:55;99961.63;;;13.77;100.00
59435;BME280;45241;49.768;8.636;2023-05-12T01:18:22;99962.50;;;13.96;100.00
59435;BME280;45241;49.768;8.636;2023-05-12T01:20:48;99954.00;;;13.99;100.00
59435;BME280;45241;49.768;8.636;2023-05-12T01:23:17;99959.88;;;13.90;100.00
59435;BME280;45241;49.768;8.636;2023-05-12T01:25:45;99961.16;;;13.87;100.00
59435;BME280;45241;49.768;8.636;2023-05-12T01:28:11;99958.47;;;13.87;100.00
59435;BME280;45241;49.768;8.636;2023-05-12T01:30:37;99964.78;;;13.74;100.00
59435;BME280;45241;49.768;8.636;2023-05-12T01:33:06;99961.63;;;13.77;100.00
59435;BME280;45241;49.768;8.636;2023-05-12T01:35:32;99964.13;;;13.72;100.00
59435;BME280;45241;49.768;8.636;2023-05-12T01:37:57;99960.59;;;13.78;100.00
59435;BME280;45241;49.768;8.636;2023-05-12T01:40:23;99962.84;;;13.82;100.00
59435;BME280;45241;49.768;8.636;2023-05-12T01:42:48;99962.34;;;13.91;100.00
59435;BME280;45241;49.768;8.636;2023-05-12T01:45:13;99964.81;;;13.93;100.00
59435;BME280;45241;49.768;8.636;2023-05-12T01:47:39;99962.13;;;13.93;100.00
59435;BME280;45241;49.768;8.636;2023-05-12T01:50:04;99964.47;;;13.83;100.00
59435;BME280;45241;49.768;8.636;2023-05-12T01:52:29;99969.84;;;13.89;100.00
59435;BME280;45241;49.768;8.636;2023-05-12T01:54:55;99966.13;;;13.84;100.00
59435;BME280;45241;49.768;8.636;2023-05-12T01:57:20;99965.72;;;13.87;100.00
59435;BME280;45241;49.768;8.636;2023-05-12T01:59:45;99971.47;;;13.90;100.00
59435;BME280;45241;49.768;8.636;2023-05-12T02:02:11;99968.59;;;13.85;100.00
59435;BME280;45241;49.768;8.636;2023-05-12T02:04:36;99969.00;;;13.89;100.00
59435;BME280;45241;49.768;8.636;2023-05-12T02:07:02;99978.13;;;13.88;100.00
59435;BME280;45241;49.768;8.636;2023-05-12T02:09:27;99971.47;;;13.90;100.00
59435;BME280;45241;49.768;8.636;2023-05-12T02:11:53;99975.97;;;13.96;100.00
59435;BME280;45241;49.768;8.636;2023-05-12T02:14:18;99973.63;;;14.06;100.00
59435;BME280;45241;49.768;8.636;2023-05-12T02:16:43;99972.34;;;13.84;100.00
59435;BME280;45241;49.768;8.636;2023-05-12T02:19:09;99977.44;;;13.67;100.00
59435;BME280;45241;49.768;8.636;2023-05-12T02:21:34;99974.91;;;13.72;100.00
59435;BME280;45241;49.768;8.636;2023-05-12T02:23:59;99976.19;;;13.70;100.00
59435;BME280;45241;49.768;8.636;2023-05-12T02:26:25;99971.13;;;13.80;100.00
59435;BME280;45241;49.768;8.636;2023-05-12T02:28:50;99970.75;;;13.76;100.00
59435;BME280;45241;49.768;8.636;2023-05-12T02:31:15;99976.91;;;13.84;100.00
59435;BME280;45241;49.768;8.636;2023-05-12T02:33:41;99978.44;;;13.73;100.00
59435;BME280;45241;49.768;8.636;2023-05-12T02:36:06;99973.66;;;13.75;100.00
59435;BME280;45241;49.768;8.636;2023-05-12T02:38:32;99978.53;;;13.91;100.00
59435;BME280;45241;49.768;8.636;2023-05-12T02:40:57;99972.91;;;13.93;100.00
59435;BME280;45241;49.768;8.636;2023-05-12T02:43:22;99975.16;;;13.96;100.00
59435;BME280;45241;49.768;8.636;2023-05-12T02:45:48;99961.31;;;13.92;100.00
59435;BME280;45241;49.768;8.636;2023-05-12T02:48:13;99972.63;;;13.76;100.00
59435;BME280;45241;49.768;8.636;2023-05-12T02:50:38;99970.69;;;13.83;100.00
59435;BME280;45241;49.768;8.636;2023-05-12T02:53:04;99963.19;;;13.92;100.00
59435;BME280;45241;49.768;8.636;2023-05-12T02:55:29;99965.66;;;13.93;100.00
59435;BME280;45241;49.768;8.636;2023-05-12T02:57:55;99964.31;;;13.77;100.00
59435;BME280;45241;49.768;8.636;2023-05-12T03:00:20;99969.50;;;13.79;100.00
59435;BME280;45241;49.768;8.636;2023-05-12T03:02:46;99969.34;;;13.74;100.00
59435;BME280;45241;49.768;8.636;2023-05-12T03:05:11;99976.91;;;13.84;100.00
59435;BME280;45241;49.768;8.636;2023-05-12T03:07:36;99969.50;;;13.79;100.00
59435;BME280;45241;49.768;8.636;2023-05-12T03:10:02;99968.94;;;13.32;100.00
59435;BME280;45241;49.768;8.636;2023-05-12T03:12:28;99974.25;;;13.45;100.00
59435;BME280;45241;49.768;8.636;2023-05-12T03:14:53;99974.50;;;13.75;100.00
59435;BME280;45241;49.768;8.636;2023-05-12T03:17:19;99975.00;;;13.91;100.00
59435;BME280;45241;49.768;8.636;2023-05-12T03:19:45;99977.13;;;13.82;100.00
59435;BME280;45241;49.768;8.636;2023-05-12T03:22:10;99971.59;;;13.77;100.00
59435;BME280;45241;49.768;8.636;2023-05-12T03:24:36;99974.66;;;13.80;100.00
59435;BME280;45241;49.768;8.636;2023-05-12T03:27:01;99969.44;;;13.86;100.00
59435;BME280;45241;49.768;8.636;2023-05-12T03:29:26;99976.88;;;13.90;100.00
59435;BME280;45241;49.768;8.636;2023-05-12T03:31:52;99976.81;;;13.97;100.00
59435;BME280;45241;49.768;8.636;2023-05-12T03:34:17;99977.59;;;14.04;100.00
59435;BME280;45241;49.768;8.636;2023-05-12T03:36:43;99975.94;;;14.03;100.00
59435;BME280;45241;49.768;8.636;2023-05-12T03:39:09;99975.22;;;13.89;100.00
59435;BME280;45241;49.768;8.636;2023-05-12T03:41:35;99978.41;;;14.04;100.00
59435;BME280;45241;49.768;8.636;2023-05-12T03:44:01;99984.88;;;13.97;100.00
59435;BME280;45241;49.768;8.636;2023-05-12T03:46:26;99978.78;;;13.83;100.00
59435;BME280;45241;49.768;8.636;2023-05-12T03:48:52;99972.53;;;13.58;100.00
59435;BME280;45241;49.768;8.636;2023-05-12T03:51:17;99974.53;;;13.69;100.00
59435;BME280;45241;49.768;8.636;2023-05-12T03:53:42;99970.63;;;13.65;100.00
59435;BME280;45241;49.768;8.636;2023-05-12T03:56:10;99975.56;;;13.68;100.00
59435;BME280;45241;49.768;8.636;2023-05-12T03:58:36;99973.91;;;13.73;100.00
59435;BME280;45241;49.768;8.636;2023-05-12T04:01:01;99973.31;;;13.65;100.00
59435;BME280;45241;49.768;8.636;2023-05-12T04:03:27;99962.69;;;13.76;100.00
59435;BME280;45241;49.768;8.636;2023-05-12T04:05:59;99973.25;;;13.71;100.00
59435;BME280;45241;49.768;8.636;2023-05-12T04:08:25;99971.97;;;13.80;100.00
59435;BME280;45241;49.768;8.636;2023-05-12T04:10:56;99970.47;;;13.85;100.00
59435;BME280;45241;49.768;8.636;2023-05-12T04:13:23;99969.00;;;13.89;100.00
59435;BME280;45241;49.768;8.636;2023-05-12T04:15:49;99964.59;;;13.94;100.00
59435;BME280;45241;49.768;8.636;2023-05-12T04:18:15;99979.56;;;13.90;100.00
59435;BME280;45241;49.768;8.636;2023-05-12T04:20:40;99981.06;;;13.86;100.00
59435;BME280;45241;49.768;8.636;2023-05-12T04:23:05;99978.06;;;13.94;100.00
59435;BME280;45241;49.768;8.636;2023-05-12T04:25:31;99979.13;;;13.93;100.00
59435;BME280;45241;49.768;8.636;2023-05-12T04:27:56;99973.97;;;13.92;100.00
59435;BME280;45241;49.768;8.636;2023-05-12T04:30:22;99978.53;;;13.91;100.00
59435;BME280;45241;49.768;8.636;2023-05-12T04:32:47;99981.09;;;14.04;100.00
59435;BME280;45241;49.768;8.636;2023-05-12T04:35:13;99981.97;;;13.98;100.00
59435;BME280;45241;49.768;8.636;2023-05-12T04:37:38;99979.72;;;13.95;100.00
59435;BME280;45241;49.768;8.636;2023-05-12T04:40:05;99990.47;;;14.02;100.00
59435;BME280;45241;49.768;8.636;2023-05-12T04:42:31;99986.44;;;14.36;100.00
59435;BME280;45241;49.768;8.636;2023-05-12T04:44:57;99981.38;;;14.46;100.00
59435;BME280;45241;49.768;8.636;2023-05-12T04:47:22;99988.28;;;14.60;100.00
59435;BME280;45241;49.768;8.636;2023-05-12T04:49:47;99983.63;;;14.49;100.00
59435;BME280;45241;49.768;8.636;2023-05-12T04:52:13;99987.16;;;14.50;100.00
59435;BME280;45241;49.768;8.636;2023-05-12T04:54:38;99990.00;;;14.55;100.00
59435;BME280;45241;49.768;8.636;2023-05-12T04:57:04;99984.41;;;14.56;100.00
59435;BME280;45241;49.768;8.636;2023-05-12T04:59:29;99987.00;;;14.63;100.00
59435;BME280;45241;49.768;8.636;2023-05-12T05:01:56;99994.88;;;14.46;100.00
59435;BME280;45241;49.768;8.636;2023-05-12T05:04:21;99984.63;;;14.55;100.00
59435;BME280;45241;49.768;8.636;2023-05-12T05:06:47;99991.34;;;14.64;100.00
59435;BME280;45241;49.768;8.636;2023-05-12T05:09:12;99992.66;;;14.36;100.00
59435;BME280;45241;49.768;8.636;2023-05-12T05:11:37;99990.34;;;14.65;100.00
59435;BME280;45241;49.768;8.636;2023-05-12T05:14:03;99989.28;;;14.66;100.00
59435;BME280;45241;49.768;8.636;2023-05-12T05:16:28;99994.75;;;14.78;100.00
59435;BME280;45241;49.768;8.636;2023-05-12T05:18:53;99989.38;;;14.78;100.00
59435;BME280;45241;49.768;8.636;2023-05-12T05:21:19;99987.69;;;14.77;100.00
59435;BME280;45241;49.768;8.636;2023-05-12T05:23:44;99990.19;;;14.78;100.00
59435;BME280;45241;49.768;8.636;2023-05-12T05:26:09;99991.16;;;14.84;100.00
59435;BME280;45241;49.768;8.636;2023-05-12T05:28:35;99999.34;;;14.77;100.00
59435;BME280;45241;49.768;8.636;2023-05-12T05:31:01;100003.88;;;14.58;100.00
59435;BME280;45241;49.768;8.636;2023-05-12T05:33:27;100007.41;;;14.95;100.00
59435;BME280;45241;49.768;8.636;2023-05-12T05:35:52;100007.78;;;14.99;100.00
59435;BME280;45241;49.768;8.636;2023-05-12T05:38:17;100010.34;;;15.12;100.00
59435;BME280;45241;49.768;8.636;2023-05-12T05:40:43;100014.09;;;14.93;100.00
59435;BME280;45241;49.768;8.636;2023-05-12T05:43:08;100011.84;;;15.08;100.00
59435;BME280;45241;49.768;8.636;2023-05-12T05:45:33;100015.16;;;14.49;100.00
59435;BME280;45241;49.768;8.636;2023-05-12T05:47:59;100016.19;;;14.73;100.00
59435;BME280;45241;49.768;8.636;2023-05-12T05:50:25;100012.75;;;14.84;100.00
59435;BME280;45241;49.768;8.636;2023-05-12T05:52:50;100010.81;;;14.91;100.00
59435;BME280;45241;49.768;8.636;2023-05-12T05:55:15;100017.53;;;15.18;100.00
59435;BME280;45241;49.768;8.636;2023-05-12T05:57:41;100021.75;;;14.78;100.00
59435;BME280;45241;49.768;8.636;2023-05-12T06:00:07;100020.97;;;14.89;100.00
59435;BME280;45241;49.768;8.636;2023-05-12T06:02:34;100014.97;;;14.87;100.00
59435;BME280;45241;49.768;8.636;2023-05-12T06:05:00;100024.41;;;15.14;100.00
59435;BME280;45241;49.768;8.636;2023-05-12T06:07:25;100018.44;;;15.12;100.00
59435;BME280;45241;49.768;8.636;2023-05-12T06:09:54;100022.19;;;15.11;100.00
59435;BME280;45241;49.768;8.636;2023-05-12T06:12:19;100031.47;;;15.15;100.00
59435;BME280;45241;49.768;8.636;2023-05-12T06:14:45;100037.25;;;15.01;100.00
59435;BME280;45241;49.768;8.636;2023-05-12T06:17:10;100036.28;;;14.95;100.00
59435;BME280;45241;49.768;8.636;2023-05-12T06:19:36;100042.44;;;15.20;100.00
59435;BME280;45241;49.768;8.636;2023-05-12T06:22:01;100041.50;;;15.26;100.00
59435;BME280;45241;49.768;8.636;2023-05-12T06:24:26;100048.13;;;15.12;100.00
59435;BME280;45241;49.768;8.636;2023-05-12T06:26:52;100043.34;;;14.96;100.00
59435;BME280;45241;49.768;8.636;2023-05-12T06:29:17;100050.38;;;14.97;100.00
59435;BME280;45241;49.768;8.636;2023-05-12T06:31:43;100040.41;;;15.16;100.00
59435;BME280;45241;49.768;8.636;2023-05-12T06:34:09;100054.66;;;14.86;100.00
59435;BME280;45241;49.768;8.636;2023-05-12T06:36:34;100046.53;;;14.86;100.00
59435;BME280;45241;49.768;8.636;2023-05-12T06:38:59;100063.59;;;14.62;100.00
59435;BME280;45241;49.768;8.636;2023-05-12T06:41:25;100051.97;;;15.05;100.00
59435;BME280;45241;49.768;8.636;2023-05-12T06:43:51;100053.00;;;14.85;100.00
59435;BME280;45241;49.768;8.636;2023-05-12T06:46:17;100054.66;;;15.05;100.00
59435;BME280;45241;49.768;8.636;2023-05-12T06:48:42;100061.41;;;14.77;100.00
59435;BME280;45241;49.768;8.636;2023-05-12T06:51:07;100059.81;;;14.88;100.00
59435;BME280;45241;49.768;8.636;2023-05-12T06:53:33;100059.66;;;14.83;100.00
59435;BME280;45241;49.768;8.636;2023-05-12T06:56:02;100060.88;;;14.87;100.00
59435;BME280;45241;49.768;8.636;2023-05-12T06:58:28;100054.59;;;15.30;100.00
59435;BME280;45241;49.768;8.636;2023-05-12T07:00:53;100062.72;;;15.41;100.00
59435;BME280;45241;49.768;8.636;2023-05-12T07:03:18;100061.25;;;15.45;100.00
59435;BME280;45241;49.768;8.636;2023-05-12T07:05:44;100064.66;;;15.04;100.00
59435;BME280;45241;49.768;8.636;2023-05-12T07:08:09;100065.41;;;15.30;100.00
59435;BME280;45241;49.768;8.636;2023-05-12T07:10:35;100066.13;;;15.37;100.00
59435;BME280;45241;49.768;8.636;2023-05-12T07:13:02;100063.84;;;15.52;100.00
59435;BME280;45241;49.768;8.636;2023-05-12T07:15:28;100066.94;;;15.37;100.00
59435;BME280;45241;49.768;8.636;2023-05-12T07:17:53;100064.19;;;15.44;100.00
59435;BME280;45241;49.768;8.636;2023-05-12T07:20:20;100052.91;;;15.47;100.00
59435;BME280;45241;49.768;8.636;2023-05-12T07:22:45;100068.81;;;15.37;100.00
59435;BME280;45241;49.768;8.636;2023-05-12T07:25:10;100060.41;;;15.63;100.00
59435;BME280;45241;49.768;8.636;2023-05-12T07:27:37;100052.31;;;15.63;100.00
59435;BME280;45241;49.768;8.636;2023-05-12T07:30:06;100058.75;;;15.62;100.00
59435;BME280;45241;49.768;8.636;2023-05-12T07:32:32;100059.34;;;15.64;100.00
59435;BME280;45241;49.768;8.636;2023-05-12T07:34:57;100061.59;;;15.67;100.00
59435;BME280;45241;49.768;8.636;2023-05-12T07:37:23;100058.72;;;15.80;100.00
59435;BME280;45241;49.768;8.636;2023-05-12T07:39:48;100064.03;;;15.57;100.00
59435;BME280;45241;49.768;8.636;2023-05-12T07:42:14;100065.16;;;15.31;100.00
59435;BME280;45241;49.768;8.636;2023-05-12T07:44:39;100066.28;;;15.60;100.00
59435;BME280;45241;49.768;8.636;2023-05-12T07:47:05;100064.00;;;15.75;100.00
59435;BME280;45241;49.768;8.636;2023-05-12T07:49:31;100074.75;;;15.64;100.00
59435;BME280;45241;49.768;8.636;2023-05-12T07:51:56;100073.47;;;15.66;100.00
59435;BME280;45241;49.768;8.636;2023-05-12T07:54:21;100071.19;;;15.81;100.00
59435;BME280;45241;49.768;8.636;2023-05-12T07:56:47;100069.72;;;15.97;100.00
59435;BME280;45241;49.768;8.636;2023-05-12T07:59:12;100061.56;;;15.85;100.00
59435;BME280;45241;49.768;8.636;2023-05-12T08:01:38;100069.75;;;16.09;100.00
59435;BME280;45241;49.768;8.636;2023-05-12T08:04:04;100071.69;;;15.90;100.00
59435;BME280;45241;49.768;8.636;2023-05-12T08:06:30;100068.88;;;15.97;100.00
59435;BME280;45241;49.768;8.636;2023-05-12T08:08:56;100073.94;;;16.05;100.00
59435;BME280;45241;49.768;8.636;2023-05-12T08:11:22;100074.28;;;15.97;100.00
59435;BME280;45241;49.768;8.636;2023-05-12T08:13:48;100069.16;;;15.77;100.00
59435;BME280;45241;49.768;8.636;2023-05-12T08:16:13;100064.16;;;15.62;100.00
59435;BME280;45241;49.768;8.636;2023-05-12T08:18:38;100079.19;;;15.58;100.00
59435;BME280;45241;49.768;8.636;2023-05-12T08:21:04;100074.72;;;15.94;100.00
59435;BME280;45241;49.768;8.636;2023-05-12T08:23:30;100073.63;;;16.13;100.00
59435;BME280;45241;49.768;8.636;2023-05-12T08:25:55;100076.13;;;16.26;100.00
59435;BME280;45241;49.768;8.636;2023-05-12T08:28:20;100084.50;;;16.36;100.00
59435;BME280;45241;49.768;8.636;2023-05-12T08:30:46;100079.13;;;16.60;100.00
59435;BME280;45241;49.768;8.636;2023-05-12T08:33:11;100079.94;;;16.60;100.00
59435;BME280;45241;49.768;8.636;2023-05-12T08:35:37;100071.50;;;16.15;100.00
59435;BME280;45241;49.768;8.636;2023-05-12T08:38:02;100085.34;;;16.49;100.00
59435;BME280;45241;49.768;8.636;2023-05-12T08:40:29;100079.53;;;16.33;100.00
59435;BME280;45241;49.768;8.636;2023-05-12T08:45:40;100085.22;;;16.67;100.00
59435;BME280;45241;49.768;8.636;2023-05-12T08:48:08;100078.16;;;16.42;100.00
59435;BME280;45241;49.768;8.636;2023-05-12T08:50:37;100087.13;;;16.66;100.00
59435;BME280;45241;49.768;8.636;2023-05-12T08:53:03;100085.13;;;16.62;100.00
59435;BME280;45241;49.768;8.636;2023-05-12T08:55:29;100084.22;;;16.91;100.00
59435;BME280;45241;49.768;8.636;2023-05-12T08:57:57;100088.56;;;16.81;100.00
59435;BME280;45241;49.768;8.636;2023-05-12T09:00:22;100087.81;;;17.20;100.00
59435;BME280;45241;49.768;8.636;2023-05-12T09:02:50;100083.13;;;17.27;100.00
59435;BME280;45241;49.768;8.636;2023-05-12T09:05:16;100083.97;;;16.81;100.00
59435;BME280;45241;49.768;8.636;2023-05-12T09:07:42;100082.88;;;17.17;100.00
59435;BME280;45241;49.768;8.636;2023-05-12T09:10:15;100080.84;;;17.36;100.00
59435;BME280;45241;49.768;8.636;2023-05-12T09:12:46;100087.59;;;17.22;100.00
59435;BME280;45241;49.768;8.636;2023-05-12T09:15:17;100089.03;;;17.65;100.00
59435;BME280;45241;49.768;8.636;2023-05-12T09:17:44;100082.06;;;17.69;100.00
59435;BME280;45241;49.768;8.636;2023-05-12T09:20:10;100079.38;;;17.57;100.00
59435;BME280;45241;49.768;8.636;2023-05-12T09:22:36;100070.91;;;18.10;100.00
59435;BME280;45241;49.768;8.636;2023-05-12T09:25:17;100073.09;;;18.42;100.00
59435;BME280;45241;49.768;8.636;2023-05-12T09:27:45;100072.63;;;18.00;100.00
59435;BME280;45241;49.768;8.636;2023-05-12T09:30:11;100073.63;;;18.10;100.00
59435;BME280;45241;49.768;8.636;2023-05-12T09:32:36;100085.25;;;17.66;100.00
59435;BME280;45241;49.768;8.636;2023-05-12T09:35:09;100066.41;;;17.59;100.00
59435;BME280;45241;49.768;8.636;2023-05-12T09:37:38;100074.94;;;17.91;100.00
59435;BME280;45241;49.768;8.636;2023-05-12T09:40:05;100071.66;;;18.06;100.00
59435;BME280;45241;49.768;8.636;2023-05-12T09:42:33;100079.28;;;17.92;100.00
59435;BME280;45241;49.768;8.636;2023-05-12T09:45:03;100072.53;;;17.66;100.00
59435;BME280;45241;49.768;8.636;2023-05-12T09:47:35;100082.47;;;17.37;100.00
59435;BME280;45241;49.768;8.636;2023-05-12T09:50:01;100074.69;;;16.89;100.00
59435;BME280;45241;49.768;8.636;2023-05-12T09:52:28;100080.44;;;17.04;100.00
59435;BME280;45241;49.768;8.636;2023-05-12T09:54:53;100091.16;;;16.87;100.00
59435;BME280;45241;49.768;8.636;2023-05-12T09:57:20;100081.22;;;16.58;100.00
59435;BME280;45241;49.768;8.636;2023-05-12T09:59:47;100090.22;;;16.82;100.00
59435;BME280;45241;49.768;8.636;2023-05-12T10:02:13;100084.41;;;16.55;100.00
59435;BME280;45241;49.768;8.636;2023-05-12T10:04:48;100087.94;;;16.55;100.00
59435;BME280;45241;49.768;8.636;2023-05-12T10:07:15;100090.34;;;16.75;100.00
59435;BME280;45241;49.768;8.636;2023-05-12T10:09:43;100088.69;;;16.86;100.00
59435;BME280;45241;49.768;8.636;2023-05-12T10:12:09;100090.44;;;16.92;100.00
59435;BME280;45241;49.768;8.636;2023-05-12T10:14:36;100080.78;;;16.84;100.00
59435;BME280;45241;49.768;8.636;2023-05-12T10:17:01;100089.47;;;17.21;100.00
59435;BME280;45241;49.768;8.636;2023-05-12T10:19:29;100084.91;;;16.98;100.00
59435;BME280;45241;49.768;8.636;2023-05-12T10:21:56;100076.72;;;17.33;100.00
59435;BME280;45241;49.768;8.636;2023-05-12T10:24:24;100077.94;;;17.26;100.00
59435;BME280;45241;49.768;8.636;2023-05-12T10:26:52;100073.91;;;17.28;100.00
59435;BME280;45241;49.768;8.636;2023-05-12T10:29:18;100072.31;;;17.56;100.00
59435;BME280;45241;49.768;8.636;2023-05-12T10:31:43;100070.16;;;17.29;100.00
59435;BME280;45241;49.768;8.636;2023-05-12T10:34:17;100071.28;;;17.45;100.00
59435;BME280;45241;49.768;8.636;2023-05-12T10:36:47;100078.94;;;17.37;100.00
59435;BME280;45241;49.768;8.636;2023-05-12T10:39:14;100076.00;;;17.90;100.00
59435;BME280;45241;49.768;8.636;2023-05-12T10:41:40;100066.28;;;17.94;100.00
59435;BME280;45241;49.768;8.636;2023-05-12T10:44:05;100079.09;;;17.70;100.00
59435;BME280;45241;49.768;8.636;2023-05-12T10:46:31;100072.28;;;17.96;100.00
59435;BME280;45241;49.768;8.636;2023-05-12T10:56:30;100082.78;;;17.64;100.00
59435;BME280;45241;49.768;8.636;2023-05-12T10:59:20;100082.66;;;17.19;100.00
59435;BME280;45241;49.768;8.636;2023-05-12T11:05:09;100089.22;;;17.23;100.00
59435;BME280;45241;49.768;8.636;2023-05-12T11:07:31;100092.91;;;17.17;100.00
59435;BME280;45241;49.768;8.636;2023-05-12T11:09:59;100087.63;;;16.87;100.00
59435;BME280;45241;49.768;8.636;2023-05-12T11:12:32;100090.44;;;17.03;100.00
59435;BME280;45241;49.768;8.636;2023-05-12T11:15:00;100092.53;;;17.25;100.00
59435;BME280;45241;49.768;8.636;2023-05-12T11:17:25;100087.84;;;17.09;100.00
59435;BME280;45241;49.768;8.636;2023-05-12T11:19:51;100087.72;;;17.15;100.00
59435;BME280;45241;49.768;8.636;2023-05-12T11:22:19;100094.69;;;16.76;100.00
59435;BME280;45241;49.768;8.636;2023-05-12T11:24:45;100096.78;;;17.09;100.00
59435;BME280;45241;49.768;8.636;2023-05-12T11:27:16;100096.44;;;16.94;100.00
59435;BME280;45241;49.768;8.636;2023-05-12T11:29:43;100100.78;;;17.07;100.00
59435;BME280;45241;49.768;8.636;2023-05-12T11:32:11;100093.25;;;17.09;100.00
59435;BME280;45241;49.768;8.636;2023-05-12T11:34:37;100101.16;;;16.75;100.00
59435;BME280;45241;49.768;8.636;2023-05-12T11:37:03;100095.38;;;17.07;100.00
59435;BME280;45241;49.768;8.636;2023-05-12T11:39:30;100098.88;;;17.42;100.00
59435;BME280;45241;49.768;8.636;2023-05-12T11:42:01;100089.63;;;17.03;100.00
59435;BME280;45241;49.768;8.636;2023-05-12T11:44:28;100092.66;;;16.60;100.00
59435;BME280;45241;49.768;8.636;2023-05-12T11:49:30;100090.56;;;16.97;100.00
59435;BME280;45241;49.768;8.636;2023-05-12T11:52:00;100096.22;;;16.95;100.00
59435;BME280;45241;49.768;8.636;2023-05-12T11:54:29;100108.34;;;16.93;100.00
59435;BME280;45241;49.768;8.636;2023-05-12T11:56:55;100102.00;;;16.87;100.00
59435;BME280;45241;49.768;8.636;2023-05-12T11:59:31;100102.81;;;16.88;100.00
59435;BME280;45241;49.768;8.636;2023-05-12T12:01:58;100109.88;;;17.12;100.00
59435;BME280;45241;49.768;8.636;2023-05-12T12:04:37;100111.88;;;16.93;100.00
59435;BME280;45241;49.768;8.636;2023-05-12T12:07:03;100112.94;;;17.04;100.00
59435;BME280;45241;49.768;8.636;2023-05-12T12:09:39;100106.78;;;17.20;100.00
59435;BME280;45241;49.768;8.636;2023-05-12T12:12:06;100113.88;;;16.75;100.00
59435;BME280;45241;49.768;8.636;2023-05-12T12:14:34;100116.22;;;16.83;100.00
59435;BME280;45241;49.768;8.636;2023-05-12T12:17:00;100118.47;;;16.86;100.00
59435;BME280;45241;49.768;8.636;2023-05-12T12:19:26;100118.44;;;16.97;100.00
59435;BME280;45241;49.768;8.636;2023-05-12T12:21:55;100119.88;;;17.00;100.00
59435;BME280;45241;49.768;8.636;2023-05-12T12:24:21;100117.41;;;16.75;100.00
59435;BME280;45241;49.768;8.636;2023-05-12T12:26:46;100128.94;;;16.94;100.00
59435;BME280;45241;49.768;8.636;2023-05-12T12:29:12;100128.94;;;16.94;100.00
59435;BME280;45241;49.768;8.636;2023-05-12T12:31:37;100124.09;;;17.08;100.00
59435;BME280;45241;49.768;8.636;2023-05-12T12:34:03;100125.16;;;16.71;100.00
59435;BME280;45241;49.768;8.636;2023-05-12T12:36:29;100123.53;;;16.82;100.00
59435;BME280;45241;49.768;8.636;2023-05-12T12:38:54;100131.06;;;17.03;100.00
59435;BME280;45241;49.768;8.636;2023-05-12T12:41:19;100128.22;;;16.98;100.00
59435;BME280;45241;49.768;8.636;2023-05-12T12:43:45;100129.03;;;17.11;100.00
59435;BME280;45241;49.768;8.636;2023-05-12T12:46:11;100135.41;;;17.05;100.00
59435;BME280;45241;49.768;8.636;2023-05-12T12:48:36;100126.13;;;17.12;100.00
59435;BME280;45241;49.768;8.636;2023-05-12T12:51:01;100129.03;;;17.11;100.00
59435;BME280;45241;49.768;8.636;2023-05-12T12:53:27;100134.81;;;17.38;100.00
59435;BME280;45241;49.768;8.636;2023-05-12T12:55:52;100133.06;;;17.20;100.00